createdAt,value
2022-11-13T00:00:38.204Z,106.87
2022-11-13T00:03:04.874Z,107.14
2022-11-13T00:05:31.516Z,107.18
2022-11-13T00:07:58.213Z,107.46
2022-11-13T00:10:24.882Z,107.39
2022-11-13T00:12:51.569Z,107.32
2022-11-13T00:15:18.189Z,107.28
2022-11-13T00:17:45.732Z,107.24
2022-11-13T00:20:12.374Z,108.03
2022-11-13T00:22:39.148Z,108.69
2022-11-13T00:25:06.123Z,108.62
2022-11-13T00:27:32.734Z,108.41
2022-11-13T00:29:59.481Z,108.81
2022-11-13T00:32:26.673Z,108.85
2022-11-13T00:34:53.361Z,109.24
2022-11-13T00:37:20.247Z,109.56
2022-11-13T00:39:46.973Z,110.19
2022-11-13T00:42:13.813Z,110.16
2022-11-13T00:44:40.674Z,109.57
2022-11-13T00:47:07.365Z,109.98
2022-11-13T00:49:34.113Z,110.29
2022-11-13T00:52:02.934Z,110.20
2022-11-13T00:54:29.802Z,110.56
2022-11-13T00:56:56.424Z,111.28
2022-11-13T00:59:23.205Z,111.81
2022-11-13T01:01:49.937Z,112.00
2022-11-13T01:04:16.778Z,111.81
2022-11-13T01:06:44.759Z,111.08
2022-11-13T01:09:11.648Z,111.59
2022-11-13T01:11:38.409Z,111.42
2022-11-13T01:14:05.164Z,111.86
2022-11-13T01:16:32.102Z,112.19
2022-11-13T01:18:58.982Z,112.56
2022-11-13T01:21:27.565Z,112.58
2022-11-13T01:23:55.058Z,112.77
2022-11-13T01:26:28.341Z,112.65
2022-11-13T01:28:58.321Z,112.63
2022-11-13T01:31:28.662Z,112.66
2022-11-13T01:33:56.007Z,112.70
2022-11-13T01:36:28.378Z,112.89
2022-11-13T01:38:55.906Z,112.93
2022-11-13T01:41:25.631Z,113.24
2022-11-13T01:43:53.952Z,113.16
2022-11-13T01:46:50.586Z,112.84
2022-11-13T01:49:24.552Z,112.35
2022-11-13T01:51:58.683Z,112.68
2022-11-13T01:54:39.020Z,112.39
2022-11-13T01:57:06.698Z,112.45
2022-11-13T01:59:40.897Z,112.71
2022-11-13T02:02:08.250Z,113.22
2022-11-13T02:04:36.042Z,113.56
2022-11-13T02:07:09.508Z,113.80
2022-11-13T02:09:40.324Z,113.36
2022-11-13T02:12:10.519Z,112.93
2022-11-13T02:14:41.322Z,113.29
2022-11-13T02:17:11.303Z,113.79
2022-11-13T02:19:42.149Z,113.76
2022-11-13T02:22:30.083Z,113.70
2022-11-13T02:25:00.323Z,113.46
2022-11-13T02:27:35.960Z,113.29
2022-11-13T02:30:22.028Z,112.98
2022-11-13T02:32:53.646Z,112.90
2022-11-13T02:35:24.971Z,112.84
2022-11-13T02:37:51.617Z,112.95
2022-11-13T02:40:19.090Z,112.84
2022-11-13T02:42:45.789Z,113.24
2022-11-13T02:45:12.474Z,113.26
2022-11-13T02:47:39.244Z,113.13
2022-11-13T02:50:06.587Z,113.32
2022-11-13T02:52:33.298Z,113.25
2022-11-13T02:54:59.968Z,113.18
2022-11-13T02:57:26.713Z,113.36
2022-11-13T02:59:53.737Z,113.71
2022-11-13T03:02:20.532Z,113.76
2022-11-13T03:05:16.330Z,113.63
2022-11-13T03:07:33.966Z,113.53
2022-11-13T03:10:00.647Z,113.42
2022-11-13T03:12:27.392Z,113.45
2022-11-13T03:14:54.075Z,113.89
2022-11-13T03:17:20.809Z,113.35
2022-11-13T03:19:47.552Z,113.65
2022-11-13T03:22:14.280Z,113.90
2022-11-13T03:24:40.964Z,113.79
2022-11-13T03:27:07.594Z,113.73
2022-11-13T03:29:34.275Z,113.68
2022-11-13T03:32:03.112Z,113.56
2022-11-13T03:34:29.898Z,113.58
2022-11-13T03:36:56.561Z,113.84
2022-11-13T03:39:23.256Z,114.09
2022-11-13T03:41:50.103Z,114.29
2022-11-13T03:44:17.065Z,114.48
2022-11-13T03:46:43.754Z,114.49
2022-11-13T03:49:10.423Z,114.67
2022-11-13T03:51:37.144Z,114.31
2022-11-13T03:54:04.007Z,114.25
2022-11-13T03:56:30.708Z,114.48
2022-11-13T03:58:57.500Z,114.33
2022-11-13T04:01:24.327Z,113.87
2022-11-13T04:03:50.985Z,113.99
2022-11-13T04:06:21.898Z,114.11
2022-11-13T04:08:48.666Z,114.65
2022-11-13T04:11:15.328Z,114.59
2022-11-13T04:13:42.030Z,114.51
2022-11-13T04:16:08.959Z,114.22
2022-11-13T04:18:35.590Z,114.99
2022-11-13T04:21:04.132Z,115.73
2022-11-13T04:23:31.307Z,115.27
2022-11-13T04:25:58.345Z,115.24
2022-11-13T04:28:25.151Z,114.96
2022-11-13T04:30:55.518Z,114.93
2022-11-13T04:33:22.510Z,115.07
2022-11-13T04:35:49.486Z,115.04
2022-11-13T04:38:16.408Z,114.85
2022-11-13T04:40:43.324Z,115.12
2022-11-13T04:43:10.132Z,115.17
2022-11-13T04:45:37.648Z,115.16
2022-11-13T04:48:04.776Z,115.48
2022-11-13T04:50:31.916Z,115.48
2022-11-13T04:52:58.749Z,116.94
2022-11-13T04:55:25.456Z,117.04
2022-11-13T04:57:55.348Z,117.27
2022-11-13T05:00:22.432Z,117.44
2022-11-13T05:02:49.195Z,117.39
2022-11-13T05:05:16.062Z,117.15
2022-11-13T05:07:42.786Z,117.04
2022-11-13T05:10:09.646Z,117.15
2022-11-13T05:12:36.341Z,116.89
2022-11-13T05:15:03.982Z,116.90
2022-11-13T05:17:30.612Z,117.00
2022-11-13T05:19:57.257Z,116.63
2022-11-13T05:22:24.020Z,116.70
2022-11-13T05:24:50.613Z,116.41
2022-11-13T05:27:17.933Z,116.02
2022-11-13T05:29:45.007Z,116.09
2022-11-13T05:32:11.777Z,116.01
2022-11-13T05:34:38.475Z,115.91
2022-11-13T05:37:05.253Z,115.67
2022-11-13T05:39:32.021Z,115.44
2022-11-13T05:41:59.403Z,115.62
2022-11-13T05:44:26.040Z,115.28
2022-11-13T05:46:52.709Z,114.90
2022-11-13T05:49:19.462Z,114.71
2022-11-13T05:51:46.209Z,114.74
2022-11-13T05:54:12.973Z,114.67
2022-11-13T05:56:40.485Z,114.56
2022-11-13T05:59:07.538Z,114.09
2022-11-13T06:01:37.471Z,113.83
2022-11-13T06:04:06.542Z,113.88
2022-11-13T06:06:33.902Z,114.16
2022-11-13T06:09:02.650Z,113.96
2022-11-13T06:11:30.454Z,114.01
2022-11-13T06:13:59.018Z,114.13
2022-11-13T06:16:30.487Z,114.06
2022-11-13T06:18:59.744Z,113.70
2022-11-13T06:21:30.313Z,113.31
2022-11-13T06:23:58.666Z,113.30
2022-11-13T06:26:33.988Z,113.38
2022-11-13T06:29:02.016Z,113.26
2022-11-13T06:31:32.343Z,113.17
2022-11-13T06:33:59.826Z,113.26
2022-11-13T06:36:28.988Z,113.39
2022-11-13T06:38:56.115Z,113.19
2022-11-13T06:41:26.985Z,113.29
2022-11-13T06:43:54.433Z,113.12
2022-11-13T06:46:25.602Z,112.85
2022-11-13T06:48:53.041Z,112.93
2022-11-13T06:51:25.704Z,113.21
2022-11-13T06:53:52.686Z,112.88
2022-11-13T06:56:19.813Z,112.51
2022-11-13T06:58:46.753Z,112.61
2022-11-13T07:01:19.415Z,112.68
2022-11-13T07:03:46.322Z,113.29
2022-11-13T07:06:18.578Z,112.80
2022-11-13T07:08:46.656Z,112.87
2022-11-13T07:11:16.592Z,112.78
2022-11-13T07:13:43.970Z,112.51
2022-11-13T07:16:19.115Z,112.23
2022-11-13T07:18:53.398Z,112.40
2022-11-13T07:21:21.310Z,112.55
2022-11-13T07:23:49.565Z,112.61
2022-11-13T07:26:16.697Z,112.53
2022-11-13T07:28:43.565Z,112.18
2022-11-13T07:31:12.753Z,111.61
2022-11-13T07:33:39.430Z,111.49
2022-11-13T07:36:06.719Z,111.38
2022-11-13T07:38:33.372Z,110.71
2022-11-13T07:41:00.520Z,110.49
2022-11-13T07:43:27.641Z,110.23
2022-11-13T07:45:55.413Z,109.90
2022-11-13T07:48:22.667Z,109.81
2022-11-13T07:50:49.744Z,109.72
2022-11-13T07:53:17.713Z,109.23
2022-11-13T07:55:44.520Z,108.58
2022-11-13T07:58:11.423Z,108.66
2022-11-13T08:00:38.865Z,108.33
2022-11-13T08:03:12.430Z,107.85
2022-11-13T08:05:39.781Z,107.44
2022-11-13T08:08:07.222Z,107.98
2022-11-13T08:10:34.049Z,107.33
2022-11-13T08:13:02.932Z,107.11
2022-11-13T08:15:30.742Z,106.11
2022-11-13T08:17:59.094Z,106.25
2022-11-13T08:20:27.607Z,105.42
2022-11-13T08:22:57.990Z,104.76
2022-11-13T08:25:25.088Z,105.15
2022-11-13T08:27:55.500Z,104.87
2022-11-13T08:30:23.802Z,104.59
2022-11-13T08:32:51.203Z,104.99
2022-11-13T08:35:19.708Z,104.95
2022-11-13T08:37:47.265Z,104.28
2022-11-13T08:40:14.344Z,106.25
2022-11-13T08:42:41.076Z,104.31
2022-11-13T08:45:08.718Z,104.58
2022-11-13T08:47:35.913Z,102.89
2022-11-13T08:50:03.253Z,103.11
2022-11-13T08:52:29.924Z,102.64
2022-11-13T08:54:56.899Z,102.41
2022-11-13T08:57:23.704Z,102.43
2022-11-13T08:59:50.552Z,100.98
2022-11-13T09:02:18.041Z,101.59
2022-11-13T09:04:44.776Z,101.09
2022-11-13T09:07:11.856Z,100.68
2022-11-13T09:09:39.527Z,101.03
2022-11-13T09:12:06.346Z,101.21
2022-11-13T09:14:33.095Z,100.87
2022-11-13T09:17:00.208Z,101.07
2022-11-13T09:19:27.210Z,101.64
2022-11-13T09:21:55.184Z,102.09
2022-11-13T09:24:21.989Z,101.58
2022-11-13T09:26:50.286Z,101.12
2022-11-13T09:29:18.354Z,100.82
2022-11-13T09:31:45.392Z,99.60
2022-11-13T09:34:12.061Z,99.36
2022-11-13T09:36:38.730Z,99.16
2022-11-13T09:39:05.635Z,99.26
2022-11-13T09:41:38.290Z,99.74
2022-11-13T09:44:12.145Z,99.50
2022-11-13T09:46:54.112Z,100.09
2022-11-13T09:49:36.122Z,100.27
2022-11-13T09:52:16.645Z,100.69
2022-11-13T09:54:43.454Z,100.10
2022-11-13T09:57:25.990Z,102.13
2022-11-13T10:00:04.176Z,100.61
2022-11-13T10:03:08.606Z,99.86
2022-11-13T10:05:51.447Z,99.82
2022-11-13T10:08:27.455Z,100.26
2022-11-13T10:11:04.727Z,100.36
2022-11-13T10:13:45.821Z,100.81
2022-11-13T10:16:30.648Z,101.37
2022-11-13T10:19:15.024Z,101.02
2022-11-13T10:21:52.069Z,101.05
2022-11-13T10:24:29.865Z,101.19
2022-11-13T10:26:59.765Z,101.83
2022-11-13T10:29:29.569Z,101.19
2022-11-13T10:31:57.192Z,101.44
2022-11-13T10:34:23.935Z,102.67
2022-11-13T10:37:09.072Z,102.86
2022-11-13T10:39:45.667Z,103.95
2022-11-13T10:42:24.260Z,104.44
2022-11-13T10:44:59.697Z,104.92
2022-11-13T10:48:02.117Z,105.41
2022-11-13T10:50:27.339Z,106.56
2022-11-13T10:52:56.043Z,108.62
2022-11-13T10:55:35.962Z,107.08
2022-11-13T10:58:12.391Z,107.62
2022-11-13T11:00:41.385Z,108.78
2022-11-13T11:03:19.551Z,109.29
2022-11-13T11:06:01.361Z,108.57
2022-11-13T11:08:34.868Z,108.80
2022-11-13T11:11:34.995Z,109.31
2022-11-13T11:14:32.043Z,109.49
2022-11-13T11:17:01.249Z,109.06
2022-11-13T11:19:32.139Z,109.53
2022-11-13T11:22:09.525Z,110.44
2022-11-13T11:24:42.200Z,110.33
2022-11-13T11:27:18.046Z,111.28
2022-11-13T11:29:54.334Z,112.93
2022-11-13T11:32:25.730Z,112.84
2022-11-13T11:35:05.165Z,111.26
2022-11-13T11:37:39.374Z,110.68
2022-11-13T11:40:21.946Z,111.56
2022-11-13T11:43:33.632Z,111.84
2022-11-13T11:46:00.386Z,111.03
2022-11-13T11:48:31.729Z,111.00
2022-11-13T11:51:13.311Z,111.43
2022-11-13T11:54:01.445Z,111.26
2022-11-13T11:56:42.043Z,111.32
2022-11-13T11:59:51.386Z,111.28
2022-11-13T12:02:39.938Z,111.81
2022-11-13T12:05:27.426Z,111.75
2022-11-13T12:08:08.179Z,111.79
2022-11-13T12:10:37.875Z,111.76
2022-11-13T12:13:07.630Z,112.32
2022-11-13T12:15:49.696Z,111.94
2022-11-13T12:18:48.242Z,112.49
2022-11-13T12:21:56.679Z,112.21
2022-11-13T12:24:50.386Z,112.07
2022-11-13T12:27:38.537Z,112.64
2022-11-13T12:30:17.893Z,112.31
2022-11-13T12:32:44.835Z,112.48
2022-11-13T12:35:20.255Z,112.64
2022-11-13T12:38:15.336Z,112.37
2022-11-13T12:40:54.056Z,112.42
2022-11-13T12:43:26.698Z,113.47
2022-11-13T12:45:59.639Z,113.21
2022-11-13T12:48:33.037Z,113.54
2022-11-13T12:51:03.199Z,113.46
2022-11-13T12:53:43.079Z,113.83
2022-11-13T12:56:24.080Z,113.19
2022-11-13T12:59:34.320Z,112.87
2022-11-13T13:02:27.204Z,113.07
2022-11-13T13:05:31.143Z,112.99
2022-11-13T13:08:11.519Z,113.09
2022-11-13T13:11:04.934Z,113.00
2022-11-13T13:13:39.976Z,113.43
2022-11-13T13:16:08.786Z,113.77
2022-11-13T13:18:38.040Z,113.82
2022-11-13T13:21:15.528Z,113.69
2022-11-13T13:23:56.835Z,113.55
2022-11-13T13:26:28.824Z,113.55
2022-11-13T13:29:18.273Z,113.32
2022-11-13T13:32:20.698Z,113.00
2022-11-13T13:35:03.129Z,113.42
2022-11-13T13:38:09.279Z,113.42
2022-11-13T13:41:01.748Z,113.27
2022-11-13T13:43:28.431Z,113.16
2022-11-13T13:46:12.330Z,112.93
2022-11-13T13:48:41.034Z,112.67
2022-11-13T13:51:26.162Z,112.80
2022-11-13T13:53:54.949Z,113.04
2022-11-13T13:56:23.216Z,112.74
2022-11-13T13:58:51.178Z,112.73
2022-11-13T14:01:33.189Z,112.72
2022-11-13T14:04:14.134Z,112.61
2022-11-13T14:06:55.826Z,112.89
2022-11-13T14:09:30.849Z,113.06
2022-11-13T14:12:00.833Z,113.17
2022-11-13T14:14:29.857Z,113.48
2022-11-13T14:16:58.723Z,113.82
2022-11-13T14:19:25.383Z,113.93
2022-11-13T14:22:04.443Z,114.20
2022-11-13T14:24:48.763Z,114.33
2022-11-13T14:27:20.717Z,114.97
2022-11-13T14:29:54.050Z,115.15
2022-11-13T14:32:29.533Z,115.37
2022-11-13T14:35:02.140Z,115.34
2022-11-13T14:37:35.918Z,115.25
2022-11-13T14:40:11.203Z,115.00
2022-11-13T14:42:43.822Z,114.37
2022-11-13T14:45:19.767Z,114.42
2022-11-13T14:48:15.865Z,114.23
2022-11-13T14:50:51.691Z,113.48
2022-11-13T14:53:34.142Z,113.87
2022-11-13T14:56:12.108Z,114.00
2022-11-13T14:58:47.324Z,113.93
2022-11-13T15:01:18.322Z,114.29
2022-11-13T15:03:46.250Z,114.38
2022-11-13T15:06:18.804Z,114.62
2022-11-13T15:08:46.782Z,114.61
2022-11-13T15:11:15.590Z,114.19
2022-11-13T15:13:42.978Z,114.65
2022-11-13T15:16:26.339Z,114.98
2022-11-13T15:18:54.641Z,115.67
2022-11-13T15:21:21.480Z,115.46
2022-11-13T15:23:48.105Z,115.48
2022-11-13T15:26:14.782Z,115.51
2022-11-13T15:28:44.491Z,115.54
2022-11-13T15:31:41.652Z,115.73
2022-11-13T15:34:12.787Z,116.41
2022-11-13T15:36:39.794Z,116.67
2022-11-13T15:39:13.153Z,116.54
2022-11-13T15:41:45.297Z,116.66
2022-11-13T15:44:14.297Z,116.61
2022-11-13T15:46:41.552Z,116.90
2022-11-13T15:49:08.236Z,117.01
2022-11-13T15:51:39.797Z,117.30
2022-11-13T15:54:24.634Z,117.41
2022-11-13T15:56:51.372Z,117.32
2022-11-13T15:59:18.196Z,117.32
2022-11-13T16:01:45.263Z,117.45
2022-11-13T16:04:13.276Z,117.74
2022-11-13T16:06:40.625Z,117.86
2022-11-13T16:09:12.996Z,117.67
2022-11-13T16:11:39.880Z,117.93
2022-11-13T16:14:07.122Z,117.74
2022-11-13T16:16:38.461Z,117.61
2022-11-13T16:19:23.746Z,117.70
2022-11-13T16:21:50.431Z,117.62
2022-11-13T16:24:22.542Z,117.28
2022-11-13T16:26:54.837Z,117.18
2022-11-13T16:29:23.308Z,117.15
2022-11-13T16:31:50.231Z,116.83
2022-11-13T16:34:16.879Z,116.69
2022-11-13T16:36:43.707Z,117.25
2022-11-13T16:39:15.889Z,117.38
2022-11-13T16:41:42.721Z,117.25
2022-11-13T16:44:09.473Z,117.65
2022-11-13T16:46:41.569Z,117.86
2022-11-13T16:49:20.278Z,118.03
2022-11-13T16:51:46.996Z,117.83
2022-11-13T16:54:14.371Z,117.58
2022-11-13T16:56:41.095Z,117.25
2022-11-13T16:59:10.368Z,117.19
2022-11-13T17:01:37.244Z,117.14
2022-11-13T17:04:04.561Z,117.23
2022-11-13T17:06:34.200Z,116.92
2022-11-13T17:09:02.955Z,116.83
2022-11-13T17:11:31.929Z,117.28
2022-11-13T17:14:00.589Z,117.06
2022-11-13T17:16:30.270Z,117.21
2022-11-13T17:18:57.852Z,117.18
2022-11-13T17:21:27.301Z,116.90
2022-11-13T17:23:58.976Z,116.97
2022-11-13T17:26:25.833Z,117.05
2022-11-13T17:28:53.277Z,117.18
2022-11-13T17:31:21.110Z,117.35
2022-11-13T17:33:48.211Z,117.57
2022-11-13T17:36:15.099Z,117.37
2022-11-13T17:38:41.875Z,117.86
2022-11-13T17:41:10.948Z,117.79
2022-11-13T17:43:39.567Z,117.62
2022-11-13T17:46:09.311Z,118.02
2022-11-13T17:48:36.869Z,117.86
2022-11-13T17:51:06.793Z,117.60
2022-11-13T17:53:34.151Z,117.09
2022-11-13T17:56:03.668Z,117.04
2022-11-13T17:58:30.844Z,117.18
2022-11-13T18:01:09.122Z,116.96
2022-11-13T18:03:35.986Z,116.76
2022-11-13T18:06:13.464Z,116.73
2022-11-13T18:08:41.709Z,116.95
2022-11-13T18:11:15.400Z,116.70
2022-11-13T18:13:42.992Z,116.83
2022-11-13T18:16:13.860Z,116.37
2022-11-13T18:18:41.776Z,116.38
2022-11-13T18:21:23.466Z,116.09
2022-11-13T18:23:56.671Z,116.18
2022-11-13T18:26:23.773Z,115.89
2022-11-13T18:28:50.431Z,115.86
2022-11-13T18:31:18.857Z,115.64
2022-11-13T18:33:45.971Z,115.27
2022-11-13T18:36:12.991Z,114.84
2022-11-13T18:38:39.844Z,115.27
2022-11-13T18:41:09.679Z,115.41
2022-11-13T18:43:36.635Z,115.17
2022-11-13T18:46:08.978Z,115.62
2022-11-13T18:48:38.698Z,115.91
2022-11-13T18:51:14.934Z,115.59
2022-11-13T18:53:43.754Z,115.70
2022-11-13T18:56:13.774Z,115.67
2022-11-13T18:58:42.034Z,116.02
2022-11-13T19:01:23.097Z,115.96
2022-11-13T19:04:23.900Z,115.77
2022-11-13T19:06:40.830Z,116.04
2022-11-13T19:09:11.597Z,115.84
2022-11-13T19:11:38.961Z,115.22
2022-11-13T19:14:06.215Z,115.12
2022-11-13T19:16:35.693Z,114.61
2022-11-13T19:19:05.923Z,114.57
2022-11-13T19:21:35.170Z,114.53
2022-11-13T19:24:02.981Z,114.25
2022-11-13T19:26:30.168Z,114.34
2022-11-13T19:28:57.501Z,114.08
2022-11-13T19:31:26.596Z,113.96
2022-11-13T19:33:58.835Z,113.83
2022-11-13T19:36:28.124Z,113.92
2022-11-13T19:38:55.769Z,113.59
2022-11-13T19:41:23.662Z,113.60
2022-11-13T19:43:50.774Z,113.77
2022-11-13T19:46:19.322Z,113.76
2022-11-13T19:48:48.023Z,113.93
2022-11-13T19:51:18.485Z,113.92
2022-11-13T19:53:50.261Z,114.12
2022-11-13T19:56:21.345Z,114.36
2022-11-13T19:58:49.563Z,114.14
2022-11-13T20:01:22.271Z,114.25
2022-11-13T20:03:54.540Z,113.67
2022-11-13T20:06:21.599Z,113.54
2022-11-13T20:08:48.436Z,113.51
2022-11-13T20:11:15.392Z,113.27
2022-11-13T20:13:43.072Z,113.05
2022-11-13T20:16:12.003Z,112.41
2022-11-13T20:18:38.935Z,113.13
2022-11-13T20:21:05.944Z,112.80
2022-11-13T20:23:33.374Z,112.79
2022-11-13T20:26:02.355Z,112.87
2022-11-13T20:28:30.599Z,112.77
2022-11-13T20:31:04.807Z,113.19
2022-11-13T20:33:33.326Z,113.29
2022-11-13T20:36:01.846Z,113.67
2022-11-13T20:38:29.200Z,113.99
2022-11-13T20:40:56.372Z,113.60
2022-11-13T20:43:23.675Z,113.73
2022-11-13T20:45:50.391Z,113.99
2022-11-13T20:48:17.187Z,113.68
2022-11-13T20:50:44.664Z,113.24
2022-11-13T20:53:12.465Z,112.93
2022-11-13T20:55:39.216Z,113.45
2022-11-13T20:58:05.966Z,113.47
2022-11-13T21:00:32.663Z,113.59
2022-11-13T21:02:59.440Z,113.48
2022-11-13T21:05:27.786Z,113.20
2022-11-13T21:07:54.661Z,112.78
2022-11-13T21:10:21.898Z,112.64
2022-11-13T21:12:48.559Z,112.73
2022-11-13T21:15:15.303Z,112.33
2022-11-13T21:17:41.941Z,112.52
2022-11-13T21:20:09.256Z,112.22
2022-11-13T21:22:35.865Z,112.07
2022-11-13T21:25:02.727Z,111.82
2022-11-13T21:27:29.314Z,111.86
2022-11-13T21:29:55.979Z,112.02
2022-11-13T21:32:22.595Z,111.39
2022-11-13T21:34:49.431Z,111.68
2022-11-13T21:37:16.297Z,111.64
2022-11-13T21:39:43.001Z,110.97
2022-11-13T21:42:09.767Z,110.70
2022-11-13T21:44:36.459Z,109.96
2022-11-13T21:47:03.370Z,109.30
2022-11-13T21:49:30.007Z,108.63
2022-11-13T21:51:56.890Z,108.64
2022-11-13T21:54:23.662Z,108.23
2022-11-13T21:56:50.913Z,107.11
2022-11-13T21:59:17.555Z,107.24
2022-11-13T22:01:44.261Z,106.96
2022-11-13T22:04:11.021Z,106.75
2022-11-13T22:06:39.569Z,107.17
2022-11-13T22:09:08.018Z,107.06
2022-11-13T22:11:36.256Z,107.33
2022-11-13T22:14:03.626Z,106.95
2022-11-13T22:16:33.247Z,107.66
2022-11-13T22:19:03.457Z,107.60
2022-11-13T22:21:31.320Z,107.58
2022-11-13T22:23:59.550Z,107.95
2022-11-13T22:26:27.892Z,107.76
2022-11-13T22:28:56.434Z,107.95
2022-11-13T22:31:26.675Z,108.14
2022-11-13T22:33:55.407Z,108.07
2022-11-13T22:36:23.647Z,108.01
2022-11-13T22:38:51.002Z,107.88
2022-11-13T22:41:24.211Z,107.98
2022-11-13T22:43:57.564Z,107.91
2022-11-13T22:46:26.541Z,107.95
2022-11-13T22:48:54.892Z,107.90
2022-11-13T22:51:24.240Z,107.84
2022-11-13T22:54:02.640Z,107.86
2022-11-13T22:56:30.959Z,107.66
2022-11-13T22:58:59.638Z,107.70
2022-11-13T23:01:28.942Z,107.64
2022-11-13T23:03:57.642Z,107.67
2022-11-13T23:06:27.218Z,107.69
2022-11-13T23:08:54.625Z,107.53
2022-11-13T23:11:23.974Z,107.73
2022-11-13T23:14:02.750Z,107.70
2022-11-13T23:16:31.051Z,107.86
2022-11-13T23:18:59.055Z,107.95
2022-11-13T23:21:27.683Z,107.62
2022-11-13T23:23:55.537Z,107.69
2022-11-13T23:26:22.960Z,107.27
2022-11-13T23:28:49.977Z,107.35
2022-11-13T23:31:16.877Z,107.03
2022-11-13T23:33:43.553Z,107.14
2022-11-13T23:36:12.178Z,107.30
2022-11-13T23:38:39.149Z,106.98
2022-11-13T23:41:06.653Z,107.14
2022-11-13T23:44:02.206Z,107.38
2022-11-13T23:46:20.177Z,106.79
2022-11-13T23:48:46.835Z,107.11
2022-11-13T23:51:13.544Z,107.20
2022-11-13T23:53:40.235Z,107.10
2022-11-13T23:56:07.671Z,107.04
2022-11-13T23:58:34.869Z,107.23
